sensor_id;sensor_type;location;lat;lon;timestamp;temperature;humidity
15115;DHT22;7658;51.456;7.622;2023-07-08T00:01:14;17.40;99.90
15115;DHT22;7658;51.456;7.622;2023-07-08T00:03:40;17.20;99.90
15115;DHT22;7658;51.456;7.622;2023-07-08T00:06:19;17.20;99.90
15115;DHT22;7658;51.456;7.622;2023-07-08T00:08:45;17.10;99.90
15115;DHT22;7658;51.456;7.622;2023-07-08T00:11:12;17.00;99.90
15115;DHT22;7658;51.456;7.622;2023-07-08T00:13:38;16.90;99.90
15115;DHT22;7658;51.456;7.622;2023-07-08T00:16:06;16.90;99.90
15115;DHT22;7658;51.456;7.622;2023-07-08T00:18:33;16.80;99.90
15115;DHT22;7658;51.456;7.622;2023-07-08T00:20:59;16.80;99.90
15115;DHT22;7658;51.456;7.622;2023-07-08T00:23:25;16.80;99.90
15115;DHT22;7658;51.456;7.622;2023-07-08T00:25:51;16.80;99.90
15115;DHT22;7658;51.456;7.622;2023-07-08T00:28:19;16.80;99.90
15115;DHT22;7658;51.456;7.622;2023-07-08T00:30:45;16.80;99.90
15115;DHT22;7658;51.456;7.622;2023-07-08T00:33:11;16.70;99.90
15115;DHT22;7658;51.456;7.622;2023-07-08T00:35:41;16.70;99.90
15115;DHT22;7658;51.456;7.622;2023-07-08T00:38:25;16.80;99.90
15115;DHT22;7658;51.456;7.622;2023-07-08T00:43:40;16.80;99.90
15115;DHT22;7658;51.456;7.622;2023-07-08T00:51:38;16.90;99.90
15115;DHT22;7658;51.456;7.622;2023-07-08T00:54:15;17.00;99.90
15115;DHT22;7658;51.456;7.622;2023-07-08T00:56:54;17.10;99.90
15115;DHT22;7658;51.456;7.622;2023-07-08T00:59:36;17.10;99.90
15115;DHT22;7658;51.456;7.622;2023-07-08T01:02:05;17.20;99.90
15115;DHT22;7658;51.456;7.622;2023-07-08T01:07:14;17.10;99.90
15115;DHT22;7658;51.456;7.622;2023-07-08T01:09:50;17.00;99.90
15115;DHT22;7658;51.456;7.622;2023-07-08T01:12:20;17.00;99.90
15115;DHT22;7658;51.456;7.622;2023-07-08T01:14:48;16.90;99.90
15115;DHT22;7658;51.456;7.622;2023-07-08T01:17:19;16.90;99.90
15115;DHT22;7658;51.456;7.622;2023-07-08T01:19:45;16.80;99.90
15115;DHT22;7658;51.456;7.622;2023-07-08T01:22:12;16.70;99.90
15115;DHT22;7658;51.456;7.622;2023-07-08T01:24:41;16.70;99.90
15115;DHT22;7658;51.456;7.622;2023-07-08T01:27:15;16.70;99.90
15115;DHT22;7658;51.456;7.622;2023-07-08T01:29:42;16.60;99.90
15115;DHT22;7658;51.456;7.622;2023-07-08T01:32:12;16.60;99.90
15115;DHT22;7658;51.456;7.622;2023-07-08T01:34:39;16.50;99.90
15115;DHT22;7658;51.456;7.622;2023-07-08T01:37:06;16.40;99.90
15115;DHT22;7658;51.456;7.622;2023-07-08T01:39:34;16.30;99.90
15115;DHT22;7658;51.456;7.622;2023-07-08T01:42:00;16.30;99.90
15115;DHT22;7658;51.456;7.622;2023-07-08T01:44:35;16.20;99.90
15115;DHT22;7658;51.456;7.622;2023-07-08T01:47:15;16.20;99.90
15115;DHT22;7658;51.456;7.622;2023-07-08T01:49:43;16.20;99.90
15115;DHT22;7658;51.456;7.622;2023-07-08T01:52:10;16.20;99.90
15115;DHT22;7658;51.456;7.622;2023-07-08T01:54:36;16.10;99.90
15115;DHT22;7658;51.456;7.622;2023-07-08T01:57:02;16.00;99.90
15115;DHT22;7658;51.456;7.622;2023-07-08T01:59:28;16.00;99.90
15115;DHT22;7658;51.456;7.622;2023-07-08T02:01:54;15.90;99.90
15115;DHT22;7658;51.456;7.622;2023-07-08T02:04:25;15.90;99.90
15115;DHT22;7658;51.456;7.622;2023-07-08T02:06:55;15.90;99.90
15115;DHT22;7658;51.456;7.622;2023-07-08T02:09:21;15.90;99.90
15115;DHT22;7658;51.456;7.622;2023-07-08T02:11:47;15.90;99.90
15115;DHT22;7658;51.456;7.622;2023-07-08T02:14:13;15.90;99.90
15115;DHT22;7658;51.456;7.622;2023-07-08T02:16:39;15.90;99.90
15115;DHT22;7658;51.456;7.622;2023-07-08T02:19:05;15.80;99.90
15115;DHT22;7658;51.456;7.622;2023-07-08T02:21:30;15.70;99.90
15115;DHT22;7658;51.456;7.622;2023-07-08T02:23:57;15.70;99.90
15115;DHT22;7658;51.456;7.622;2023-07-08T02:26:23;15.70;99.90
15115;DHT22;7658;51.456;7.622;2023-07-08T02:28:49;15.70;99.90
15115;DHT22;7658;51.456;7.622;2023-07-08T02:31:15;15.70;99.90
15115;DHT22;7658;51.456;7.622;2023-07-08T02:33:41;15.60;99.90
15115;DHT22;7658;51.456;7.622;2023-07-08T02:36:06;15.60;99.90
15115;DHT22;7658;51.456;7.622;2023-07-08T02:38:32;15.60;99.90
15115;DHT22;7658;51.456;7.622;2023-07-08T02:40:59;15.60;99.90
15115;DHT22;7658;51.456;7.622;2023-07-08T02:43:25;15.50;99.90
15115;DHT22;7658;51.456;7.622;2023-07-08T02:45:51;15.60;99.90
15115;DHT22;7658;51.456;7.622;2023-07-08T02:48:18;15.60;99.90
15115;DHT22;7658;51.456;7.622;2023-07-08T02:50:44;15.60;99.90
15115;DHT22;7658;51.456;7.622;2023-07-08T02:53:10;15.70;99.90
15115;DHT22;7658;51.456;7.622;2023-07-08T02:55:35;15.70;99.90
15115;DHT22;7658;51.456;7.622;2023-07-08T02:58:01;15.60;99.90
15115;DHT22;7658;51.456;7.622;2023-07-08T03:00:27;15.60;99.90
15115;DHT22;7658;51.456;7.622;2023-07-08T03:02:53;15.60;99.90
15115;DHT22;7658;51.456;7.622;2023-07-08T03:05:19;15.60;99.90
15115;DHT22;7658;51.456;7.622;2023-07-08T03:07:45;15.60;99.90
15115;DHT22;7658;51.456;7.622;2023-07-08T03:10:10;15.60;99.90
15115;DHT22;7658;51.456;7.622;2023-07-08T03:12:36;15.50;99.90
15115;DHT22;7658;51.456;7.622;2023-07-08T03:15:02;15.50;99.90
15115;DHT22;7658;51.456;7.622;2023-07-08T03:17:28;15.40;99.90
15115;DHT22;7658;51.456;7.622;2023-07-08T03:19:54;15.40;99.90
15115;DHT22;7658;51.456;7.622;2023-07-08T03:22:20;15.40;99.90
15115;DHT22;7658;51.456;7.622;2023-07-08T03:24:46;15.40;99.90
15115;DHT22;7658;51.456;7.622;2023-07-08T03:27:13;15.40;99.90
15115;DHT22;7658;51.456;7.622;2023-07-08T03:29:39;15.40;99.90
15115;DHT22;7658;51.456;7.622;2023-07-08T03:32:08;15.40;99.90
15115;DHT22;7658;51.456;7.622;2023-07-08T03:34:35;15.40;99.90
15115;DHT22;7658;51.456;7.622;2023-07-08T03:37:00;15.40;99.90
15115;DHT22;7658;51.456;7.622;2023-07-08T03:39:26;15.40;99.90
15115;DHT22;7658;51.456;7.622;2023-07-08T03:41:52;15.40;99.90
15115;DHT22;7658;51.456;7.622;2023-07-08T03:44:19;15.40;99.90
15115;DHT22;7658;51.456;7.622;2023-07-08T03:46:46;15.40;99.90
15115;DHT22;7658;51.456;7.622;2023-07-08T03:49:13;15.40;99.90
15115;DHT22;7658;51.456;7.622;2023-07-08T03:51:40;15.30;99.90
15115;DHT22;7658;51.456;7.622;2023-07-08T03:54:09;15.30;99.90
15115;DHT22;7658;51.456;7.622;2023-07-08T03:56:36;15.30;99.90
15115;DHT22;7658;51.456;7.622;2023-07-08T03:59:02;15.30;99.90
15115;DHT22;7658;51.456;7.622;2023-07-08T04:01:28;15.40;99.90
15115;DHT22;7658;51.456;7.622;2023-07-08T04:03:57;15.40;99.90
15115;DHT22;7658;51.456;7.622;2023-07-08T04:06:24;15.40;99.90
15115;DHT22;7658;51.456;7.622;2023-07-08T04:08:50;15.30;99.90
15115;DHT22;7658;51.456;7.622;2023-07-08T04:11:19;15.40;99.90
15115;DHT22;7658;51.456;7.622;2023-07-08T04:13:45;15.40;99.90
15115;DHT22;7658;51.456;7.622;2023-07-08T04:18:42;15.40;99.90
15115;DHT22;7658;51.456;7.622;2023-07-08T04:21:07;15.30;99.90
15115;DHT22;7658;51.456;7.622;2023-07-08T04:23:33;15.40;99.90
15115;DHT22;7658;51.456;7.622;2023-07-08T04:25:59;15.40;99.90
15115;DHT22;7658;51.456;7.622;2023-07-08T04:28:25;15.40;99.90
15115;DHT22;7658;51.456;7.622;2023-07-08T04:30:51;15.40;99.90
15115;DHT22;7658;51.456;7.622;2023-07-08T04:33:17;15.50;99.90
15115;DHT22;7658;51.456;7.622;2023-07-08T04:35:44;15.50;99.90
15115;DHT22;7658;51.456;7.622;2023-07-08T04:38:21;15.50;99.90
15115;DHT22;7658;51.456;7.622;2023-07-08T04:40:48;15.60;99.90
15115;DHT22;7658;51.456;7.622;2023-07-08T04:43:14;15.60;99.90
15115;DHT22;7658;51.456;7.622;2023-07-08T04:45:42;15.70;99.90
15115;DHT22;7658;51.456;7.622;2023-07-08T04:48:16;15.60;99.90
15115;DHT22;7658;51.456;7.622;2023-07-08T04:50:43;15.60;99.90
15115;DHT22;7658;51.456;7.622;2023-07-08T04:53:09;15.60;99.90
15115;DHT22;7658;51.456;7.622;2023-07-08T04:55:40;15.60;99.90
15115;DHT22;7658;51.456;7.622;2023-07-08T04:58:07;15.60;99.90
15115;DHT22;7658;51.456;7.622;2023-07-08T05:00:32;15.60;99.90
15115;DHT22;7658;51.456;7.622;2023-07-08T05:02:58;15.60;99.90
15115;DHT22;7658;51.456;7.622;2023-07-08T05:05:24;15.60;99.90
15115;DHT22;7658;51.456;7.622;2023-07-08T05:07:50;15.60;99.90
15115;DHT22;7658;51.456;7.622;2023-07-08T05:10:17;15.60;99.90
15115;DHT22;7658;51.456;7.622;2023-07-08T05:12:43;15.60;99.90
15115;DHT22;7658;51.456;7.622;2023-07-08T05:15:09;15.60;99.90
15115;DHT22;7658;51.456;7.622;2023-07-08T05:17:37;15.70;99.90
15115;DHT22;7658;51.456;7.622;2023-07-08T05:20:04;15.70;99.90
15115;DHT22;7658;51.456;7.622;2023-07-08T05:22:30;15.70;99.90
15115;DHT22;7658;51.456;7.622;2023-07-08T05:24:57;15.80;99.90
15115;DHT22;7658;51.456;7.622;2023-07-08T05:27:23;15.80;99.90
15115;DHT22;7658;51.456;7.622;2023-07-08T05:29:49;16.00;99.90
15115;DHT22;7658;51.456;7.622;2023-07-08T05:32:16;16.00;99.90
15115;DHT22;7658;51.456;7.622;2023-07-08T05:34:43;16.10;99.90
15115;DHT22;7658;51.456;7.622;2023-07-08T05:37:10;16.20;99.90
15115;DHT22;7658;51.456;7.622;2023-07-08T05:39:36;16.30;99.90
15115;DHT22;7658;51.456;7.622;2023-07-08T05:42:02;16.40;99.90
15115;DHT22;7658;51.456;7.622;2023-07-08T05:44:28;16.50;99.90
15115;DHT22;7658;51.456;7.622;2023-07-08T05:46:54;16.60;99.90
15115;DHT22;7658;51.456;7.622;2023-07-08T05:49:20;16.70;99.90
15115;DHT22;7658;51.456;7.622;2023-07-08T05:51:45;16.90;99.90
15115;DHT22;7658;51.456;7.622;2023-07-08T05:54:12;16.90;99.90
15115;DHT22;7658;51.456;7.622;2023-07-08T05:56:38;17.10;99.90
15115;DHT22;7658;51.456;7.622;2023-07-08T05:59:04;17.20;99.90
15115;DHT22;7658;51.456;7.622;2023-07-08T06:01:30;17.40;99.90
15115;DHT22;7658;51.456;7.622;2023-07-08T06:03:57;17.50;99.90
15115;DHT22;7658;51.456;7.622;2023-07-08T06:06:25;17.60;99.90
15115;DHT22;7658;51.456;7.622;2023-07-08T06:08:51;17.70;99.90
15115;DHT22;7658;51.456;7.622;2023-07-08T06:11:17;17.80;99.90
15115;DHT22;7658;51.456;7.622;2023-07-08T06:13:43;17.90;99.90
15115;DHT22;7658;51.456;7.622;2023-07-08T06:16:09;18.00;99.90
15115;DHT22;7658;51.456;7.622;2023-07-08T06:18:35;18.10;99.90
15115;DHT22;7658;51.456;7.622;2023-07-08T06:21:01;18.20;99.90
15115;DHT22;7658;51.456;7.622;2023-07-08T06:23:27;18.30;99.90
15115;DHT22;7658;51.456;7.622;2023-07-08T06:25:53;18.40;99.90
15115;DHT22;7658;51.456;7.622;2023-07-08T06:28:19;18.60;99.90
15115;DHT22;7658;51.456;7.622;2023-07-08T06:30:45;18.70;99.90
15115;DHT22;7658;51.456;7.622;2023-07-08T06:33:12;18.90;99.90
15115;DHT22;7658;51.456;7.622;2023-07-08T06:35:38;19.00;99.90
15115;DHT22;7658;51.456;7.622;2023-07-08T06:38:05;19.10;99.90
15115;DHT22;7658;51.456;7.622;2023-07-08T06:40:32;19.20;99.90
15115;DHT22;7658;51.456;7.622;2023-07-08T06:42:57;19.40;99.90
15115;DHT22;7658;51.456;7.622;2023-07-08T06:45:23;19.40;99.90
15115;DHT22;7658;51.456;7.622;2023-07-08T06:47:49;19.60;99.90
15115;DHT22;7658;51.456;7.622;2023-07-08T06:50:15;19.70;99.90
15115;DHT22;7658;51.456;7.622;2023-07-08T06:52:41;19.80;99.90
15115;DHT22;7658;51.456;7.622;2023-07-08T06:55:09;20.00;99.90
15115;DHT22;7658;51.456;7.622;2023-07-08T06:57:35;20.00;99.90
15115;DHT22;7658;51.456;7.622;2023-07-08T07:00:05;20.20;99.90
15115;DHT22;7658;51.456;7.622;2023-07-08T07:02:31;20.30;99.90
15115;DHT22;7658;51.456;7.622;2023-07-08T07:04:57;20.50;99.90
15115;DHT22;7658;51.456;7.622;2023-07-08T07:07:23;20.60;99.90
15115;DHT22;7658;51.456;7.622;2023-07-08T07:09:49;20.80;99.90
15115;DHT22;7658;51.456;7.622;2023-07-08T07:12:15;20.90;99.90
15115;DHT22;7658;51.456;7.622;2023-07-08T07:14:40;21.00;99.90
15115;DHT22;7658;51.456;7.622;2023-07-08T07:17:06;21.20;99.90
15115;DHT22;7658;51.456;7.622;2023-07-08T07:19:32;21.30;99.90
15115;DHT22;7658;51.456;7.622;2023-07-08T07:21:58;21.40;99.90
15115;DHT22;7658;51.456;7.622;2023-07-08T07:24:24;21.50;99.90
15115;DHT22;7658;51.456;7.622;2023-07-08T07:26:50;21.50;99.90
15115;DHT22;7658;51.456;7.622;2023-07-08T07:29:17;21.60;99.90
15115;DHT22;7658;51.456;7.622;2023-07-08T07:31:43;21.70;99.90
15115;DHT22;7658;51.456;7.622;2023-07-08T07:34:10;21.80;99.90
15115;DHT22;7658;51.456;7.622;2023-07-08T07:36:37;22.00;77.00
15115;DHT22;7658;51.456;7.622;2023-07-08T07:39:03;22.10;38.90
15115;DHT22;7658;51.456;7.622;2023-07-08T07:41:29;22.30;4.30
15115;DHT22;7658;51.456;7.622;2023-07-08T07:43:54;22.40;22.90
15115;DHT22;7658;51.456;7.622;2023-07-08T07:46:21;22.50;1.00
15115;DHT22;7658;51.456;7.622;2023-07-08T07:48:46;22.70;1.00
15115;DHT22;7658;51.456;7.622;2023-07-08T07:51:12;22.80;1.00
15115;DHT22;7658;51.456;7.622;2023-07-08T07:53:39;22.80;1.00
15115;DHT22;7658;51.456;7.622;2023-07-08T07:56:05;22.90;1.00
15115;DHT22;7658;51.456;7.622;2023-07-08T07:58:32;23.00;1.00
15115;DHT22;7658;51.456;7.622;2023-07-08T08:00:58;23.10;1.00
15115;DHT22;7658;51.456;7.622;2023-07-08T08:03:24;23.30;1.00
15115;DHT22;7658;51.456;7.622;2023-07-08T08:05:50;23.40;1.00
15115;DHT22;7658;51.456;7.622;2023-07-08T08:08:16;23.60;1.00
15115;DHT22;7658;51.456;7.622;2023-07-08T08:10:43;23.80;99.90
15115;DHT22;7658;51.456;7.622;2023-07-08T08:13:09;24.00;1.00
15115;DHT22;7658;51.456;7.622;2023-07-08T08:15:37;24.20;1.00
15115;DHT22;7658;51.456;7.622;2023-07-08T08:18:03;24.30;99.90
15115;DHT22;7658;51.456;7.622;2023-07-08T08:20:29;24.50;34.40
15115;DHT22;7658;51.456;7.622;2023-07-08T08:22:55;24.60;99.90
15115;DHT22;7658;51.456;7.622;2023-07-08T08:25:23;24.70;1.00
15115;DHT22;7658;51.456;7.622;2023-07-08T08:27:48;24.80;99.90
15115;DHT22;7658;51.456;7.622;2023-07-08T08:30:15;24.80;1.00
15115;DHT22;7658;51.456;7.622;2023-07-08T08:32:41;25.00;1.00
15115;DHT22;7658;51.456;7.622;2023-07-08T08:35:07;25.20;1.00
15115;DHT22;7658;51.456;7.622;2023-07-08T08:37:33;25.50;1.00
15115;DHT22;7658;51.456;7.622;2023-07-08T08:39:59;25.60;24.80
15115;DHT22;7658;51.456;7.622;2023-07-08T08:42:34;25.80;1.00
15115;DHT22;7658;51.456;7.622;2023-07-08T08:45:01;26.00;99.90
15115;DHT22;7658;51.456;7.622;2023-07-08T08:50:19;26.30;99.90
15115;DHT22;7658;51.456;7.622;2023-07-08T08:52:50;26.60;1.00
15115;DHT22;7658;51.456;7.622;2023-07-08T08:55:17;26.90;1.00
15115;DHT22;7658;51.456;7.622;2023-07-08T08:58:35;26.90;99.90
15115;DHT22;7658;51.456;7.622;2023-07-08T09:01:00;27.00;1.00
15115;DHT22;7658;51.456;7.622;2023-07-08T09:03:42;27.20;99.90
15115;DHT22;7658;51.456;7.622;2023-07-08T09:06:21;27.50;99.90
15115;DHT22;7658;51.456;7.622;2023-07-08T09:08:50;27.70;99.90
15115;DHT22;7658;51.456;7.622;2023-07-08T09:14:24;28.10;1.00
15115;DHT22;7658;51.456;7.622;2023-07-08T09:16:58;28.40;99.90
15115;DHT22;7658;51.456;7.622;2023-07-08T09:19:33;28.70;1.00
15115;DHT22;7658;51.456;7.622;2023-07-08T09:24:42;29.20;99.90
15115;DHT22;7658;51.456;7.622;2023-07-08T09:27:08;29.30;99.90
15115;DHT22;7658;51.456;7.622;2023-07-08T09:29:34;29.40;1.00
15115;DHT22;7658;51.456;7.622;2023-07-08T09:32:14;29.60;8.90
15115;DHT22;7658;51.456;7.622;2023-07-08T09:34:56;29.80;1.00
15115;DHT22;7658;51.456;7.622;2023-07-08T09:37:23;29.90;1.00
15115;DHT22;7658;51.456;7.622;2023-07-08T09:39:49;30.00;1.00
15115;DHT22;7658;51.456;7.622;2023-07-08T09:42:15;30.10;1.00
15115;DHT22;7658;51.456;7.622;2023-07-08T09:44:43;29.80;1.00
15115;DHT22;7658;51.456;7.622;2023-07-08T09:47:33;29.80;1.00
15115;DHT22;7658;51.456;7.622;2023-07-08T09:50:00;29.90;1.00
15115;DHT22;7658;51.456;7.622;2023-07-08T09:52:29;30.00;1.00
15115;DHT22;7658;51.456;7.622;2023-07-08T09:54:55;30.10;1.00
15115;DHT22;7658;51.456;7.622;2023-07-08T09:57:29;30.20;1.00
15115;DHT22;7658;51.456;7.622;2023-07-08T10:00:02;30.30;1.00
15115;DHT22;7658;51.456;7.622;2023-07-08T10:03:13;30.30;1.00
15115;DHT22;7658;51.456;7.622;2023-07-08T10:05:25;30.40;1.00
15115;DHT22;7658;51.456;7.622;2023-07-08T10:07:55;30.50;1.00
15115;DHT22;7658;51.456;7.622;2023-07-08T10:10:31;30.60;1.00
15115;DHT22;7658;51.456;7.622;2023-07-08T10:13:02;30.50;1.00
15115;DHT22;7658;51.456;7.622;2023-07-08T10:16:12;30.60;15.40
15115;DHT22;7658;51.456;7.622;2023-07-08T10:18:38;30.80;1.00
15115;DHT22;7658;51.456;7.622;2023-07-08T10:21:27;30.80;1.00
15115;DHT22;7658;51.456;7.622;2023-07-08T10:26:47;30.90;1.00
15115;DHT22;7658;51.456;7.622;2023-07-08T10:31:52;31.10;1.00
15115;DHT22;7658;51.456;7.622;2023-07-08T10:37:11;31.30;1.00
15115;DHT22;7658;51.456;7.622;2023-07-08T10:45:13;31.30;1.00
15115;DHT22;7658;51.456;7.622;2023-07-08T10:56:37;31.40;1.00
15115;DHT22;7658;51.456;7.622;2023-07-08T11:07:41;31.60;1.00
15115;DHT22;7658;51.456;7.622;2023-07-08T11:13:02;31.40;1.00
15115;DHT22;7658;51.456;7.622;2023-07-08T11:15:56;31.50;33.70
15115;DHT22;7658;51.456;7.622;2023-07-08T11:18:43;31.40;99.90
15115;DHT22;7658;51.456;7.622;2023-07-08T11:22:14;31.60;27.90
15115;DHT22;7658;51.456;7.622;2023-07-08T11:24:14;31.70;77.20
15115;DHT22;7658;51.456;7.622;2023-07-08T11:29:36;31.90;34.30
15115;DHT22;7658;51.456;7.622;2023-07-08T11:32:04;32.00;1.00
15115;DHT22;7658;51.456;7.622;2023-07-08T11:34:32;32.10;1.00
15115;DHT22;7658;51.456;7.622;2023-07-08T11:36:59;32.30;1.00
15115;DHT22;7658;51.456;7.622;2023-07-08T11:39:39;32.40;20.50
15115;DHT22;7658;51.456;7.622;2023-07-08T11:42:17;32.50;7.10
15115;DHT22;7658;51.456;7.622;2023-07-08T11:44:47;32.40;17.10
15115;DHT22;7658;51.456;7.622;2023-07-08T11:47:21;32.30;99.90
15115;DHT22;7658;51.456;7.622;2023-07-08T11:49:52;32.30;99.90
15115;DHT22;7658;51.456;7.622;2023-07-08T11:52:20;32.50;22.00
15115;DHT22;7658;51.456;7.622;2023-07-08T11:54:48;32.60;79.60
15115;DHT22;7658;51.456;7.622;2023-07-08T11:57:29;32.60;99.90
15115;DHT22;7658;51.456;7.622;2023-07-08T12:00:21;32.80;68.80
15115;DHT22;7658;51.456;7.622;2023-07-08T12:02:58;32.90;18.90
15115;DHT22;7658;51.456;7.622;2023-07-08T12:05:36;33.00;27.60
15115;DHT22;7658;51.456;7.622;2023-07-08T12:08:13;33.10;32.90
15115;DHT22;7658;51.456;7.622;2023-07-08T12:10:46;33.20;99.90
15115;DHT22;7658;51.456;7.622;2023-07-08T12:13:19;33.20;99.90
15115;DHT22;7658;51.456;7.622;2023-07-08T12:15:45;33.20;99.90
15115;DHT22;7658;51.456;7.622;2023-07-08T12:18:32;33.40;86.00
15115;DHT22;7658;51.456;7.622;2023-07-08T12:21:00;33.30;99.90
15115;DHT22;7658;51.456;7.622;2023-07-08T12:23:28;33.30;99.90
15115;DHT22;7658;51.456;7.622;2023-07-08T12:25:55;33.30;99.90
15115;DHT22;7658;51.456;7.622;2023-07-08T12:28:21;33.60;99.90
15115;DHT22;7658;51.456;7.622;2023-07-08T12:30:49;33.60;99.90
15115;DHT22;7658;51.456;7.622;2023-07-08T12:33:31;33.40;99.90
15115;DHT22;7658;51.456;7.622;2023-07-08T12:36:00;33.50;99.90
15115;DHT22;7658;51.456;7.622;2023-07-08T12:38:33;33.40;99.90
15115;DHT22;7658;51.456;7.622;2023-07-08T12:41:03;33.50;99.90
15115;DHT22;7658;51.456;7.622;2023-07-08T12:43:31;33.40;99.90
15115;DHT22;7658;51.456;7.622;2023-07-08T12:45:57;33.60;1.00
15115;DHT22;7658;51.456;7.622;2023-07-08T12:48:23;33.80;99.90
15115;DHT22;7658;51.456;7.622;2023-07-08T12:50:49;34.00;1.00
15115;DHT22;7658;51.456;7.622;2023-07-08T12:53:15;34.10;1.00
15115;DHT22;7658;51.456;7.622;2023-07-08T12:55:43;34.10;99.90
15115;DHT22;7658;51.456;7.622;2023-07-08T12:58:17;34.40;1.00
15115;DHT22;7658;51.456;7.622;2023-07-08T13:00:45;34.30;99.90
15115;DHT22;7658;51.456;7.622;2023-07-08T13:03:17;34.20;99.90
15115;DHT22;7658;51.456;7.622;2023-07-08T13:05:44;34.20;99.90
15115;DHT22;7658;51.456;7.622;2023-07-08T13:08:14;34.40;99.90
15115;DHT22;7658;51.456;7.622;2023-07-08T13:10:42;34.50;99.90
15115;DHT22;7658;51.456;7.622;2023-07-08T13:13:13;34.60;99.90
15115;DHT22;7658;51.456;7.622;2023-07-08T13:15:41;34.80;99.90
15115;DHT22;7658;51.456;7.622;2023-07-08T13:18:32;34.80;99.90
15115;DHT22;7658;51.456;7.622;2023-07-08T13:20:58;35.00;1.00
15115;DHT22;7658;51.456;7.622;2023-07-08T13:23:26;34.80;99.90
15115;DHT22;7658;51.456;7.622;2023-07-08T13:25:53;34.50;99.90
15115;DHT22;7658;51.456;7.622;2023-07-08T13:28:24;34.40;99.90
15115;DHT22;7658;51.456;7.622;2023-07-08T13:33:18;34.50;99.90
15115;DHT22;7658;51.456;7.622;2023-07-08T13:35:45;34.60;1.00
15115;DHT22;7658;51.456;7.622;2023-07-08T13:38:20;34.50;99.90
15115;DHT22;7658;51.456;7.622;2023-07-08T13:40:54;34.50;99.90
15115;DHT22;7658;51.456;7.622;2023-07-08T13:43:29;34.80;99.90
15115;DHT22;7658;51.456;7.622;2023-07-08T13:45:56;35.00;1.00
15115;DHT22;7658;51.456;7.622;2023-07-08T13:48:33;34.80;1.00
15115;DHT22;7658;51.456;7.622;2023-07-08T13:53:43;34.70;1.00
15115;DHT22;7658;51.456;7.622;2023-07-08T13:56:20;34.60;1.00
15115;DHT22;7658;51.456;7.622;2023-07-08T13:58:49;34.60;1.00
15115;DHT22;7658;51.456;7.622;2023-07-08T14:01:21;34.80;1.00
15115;DHT22;7658;51.456;7.622;2023-07-08T14:03:48;34.80;1.00
15115;DHT22;7658;51.456;7.622;2023-07-08T14:06:23;34.80;99.90
15115;DHT22;7658;51.456;7.622;2023-07-08T14:08:53;34.90;99.90
15115;DHT22;7658;51.456;7.622;2023-07-08T14:11:19;34.80;99.90
15115;DHT22;7658;51.456;7.622;2023-07-08T14:13:45;35.10;99.90
15115;DHT22;7658;51.456;7.622;2023-07-08T14:18:45;35.50;1.00
15115;DHT22;7658;51.456;7.622;2023-07-08T14:21:11;35.70;1.00
15115;DHT22;7658;51.456;7.622;2023-07-08T14:23:36;35.80;1.00
15115;DHT22;7658;51.456;7.622;2023-07-08T14:26:09;36.30;1.00
15115;DHT22;7658;51.456;7.622;2023-07-08T14:28:35;36.00;1.00
15115;DHT22;7658;51.456;7.622;2023-07-08T14:31:01;35.50;1.00
15115;DHT22;7658;51.456;7.622;2023-07-08T14:33:27;35.20;1.00
15115;DHT22;7658;51.456;7.622;2023-07-08T14:35:53;35.30;1.00
15115;DHT22;7658;51.456;7.622;2023-07-08T14:38:18;35.40;1.00
15115;DHT22;7658;51.456;7.622;2023-07-08T14:40:44;35.40;1.00
15115;DHT22;7658;51.456;7.622;2023-07-08T14:43:21;35.30;1.00
15115;DHT22;7658;51.456;7.622;2023-07-08T14:45:53;34.90;1.00
15115;DHT22;7658;51.456;7.622;2023-07-08T14:48:19;34.20;1.00
15115;DHT22;7658;51.456;7.622;2023-07-08T14:50:45;33.90;33.90
15115;DHT22;7658;51.456;7.622;2023-07-08T14:53:13;33.60;1.00
15115;DHT22;7658;51.456;7.622;2023-07-08T14:55:40;33.60;1.00
15115;DHT22;7658;51.456;7.622;2023-07-08T14:58:10;34.00;1.00
15115;DHT22;7658;51.456;7.622;2023-07-08T15:00:42;34.40;1.00
15115;DHT22;7658;51.456;7.622;2023-07-08T15:03:08;34.80;99.90
15115;DHT22;7658;51.456;7.622;2023-07-08T15:05:34;35.00;11.00
15115;DHT22;7658;51.456;7.622;2023-07-08T15:07:59;35.10;67.40
15115;DHT22;7658;51.456;7.622;2023-07-08T15:10:28;35.00;86.00
15115;DHT22;7658;51.456;7.622;2023-07-08T15:12:55;34.60;40.80
15115;DHT22;7658;51.456;7.622;2023-07-08T15:17:53;34.10;1.00
15115;DHT22;7658;51.456;7.622;2023-07-08T15:20:19;34.30;99.90
15115;DHT22;7658;51.456;7.622;2023-07-08T15:22:44;34.50;1.00
15115;DHT22;7658;51.456;7.622;2023-07-08T15:25:14;34.10;1.00
15115;DHT22;7658;51.456;7.622;2023-07-08T15:27:47;34.00;1.00
15115;DHT22;7658;51.456;7.622;2023-07-08T15:30:22;34.30;99.90
15115;DHT22;7658;51.456;7.622;2023-07-08T15:32:49;34.50;1.00
15115;DHT22;7658;51.456;7.622;2023-07-08T15:35:26;34.60;1.00
15115;DHT22;7658;51.456;7.622;2023-07-08T15:38:00;34.70;99.90
15115;DHT22;7658;51.456;7.622;2023-07-08T15:40:31;34.80;99.90
15115;DHT22;7658;51.456;7.622;2023-07-08T15:42:58;35.00;1.00
15115;DHT22;7658;51.456;7.622;2023-07-08T15:45:33;35.40;60.80
15115;DHT22;7658;51.456;7.622;2023-07-08T15:48:00;35.10;1.00
15115;DHT22;7658;51.456;7.622;2023-07-08T15:50:27;34.70;1.00
15115;DHT22;7658;51.456;7.622;2023-07-08T15:52:54;34.50;1.00
15115;DHT22;7658;51.456;7.622;2023-07-08T15:55:30;34.30;1.00
15115;DHT22;7658;51.456;7.622;2023-07-08T15:58:04;34.10;99.90
15115;DHT22;7658;51.456;7.622;2023-07-08T16:00:37;34.00;1.00
15115;DHT22;7658;51.456;7.622;2023-07-08T16:03:09;33.90;99.90
15115;DHT22;7658;51.456;7.622;2023-07-08T16:05:36;34.00;99.90
15115;DHT22;7658;51.456;7.622;2023-07-08T16:08:02;34.10;1.00
15115;DHT22;7658;51.456;7.622;2023-07-08T16:10:31;34.10;1.00
15115;DHT22;7658;51.456;7.622;2023-07-08T16:12:57;33.90;1.00
15115;DHT22;7658;51.456;7.622;2023-07-08T16:15:35;33.80;1.00
15115;DHT22;7658;51.456;7.622;2023-07-08T16:18:04;33.90;1.00
15115;DHT22;7658;51.456;7.622;2023-07-08T16:20:33;33.90;18.20
15115;DHT22;7658;51.456;7.622;2023-07-08T16:22:59;34.00;1.00
15115;DHT22;7658;51.456;7.622;2023-07-08T16:25:33;33.70;1.00
15115;DHT22;7658;51.456;7.622;2023-07-08T16:28:00;33.70;1.00
15115;DHT22;7658;51.456;7.622;2023-07-08T16:30:27;33.60;99.90
15115;DHT22;7658;51.456;7.622;2023-07-08T16:32:53;33.50;99.90
15115;DHT22;7658;51.456;7.622;2023-07-08T16:35:20;33.30;1.00
15115;DHT22;7658;51.456;7.622;2023-07-08T16:37:47;33.30;1.00
15115;DHT22;7658;51.456;7.622;2023-07-08T16:40:18;33.10;99.90
15115;DHT22;7658;51.456;7.622;2023-07-08T16:42:45;33.00;1.00
15115;DHT22;7658;51.456;7.622;2023-07-08T16:45:13;33.00;99.90
15115;DHT22;7658;51.456;7.622;2023-07-08T16:47:39;33.00;1.00
15115;DHT22;7658;51.456;7.622;2023-07-08T16:50:06;32.90;1.00
15115;DHT22;7658;51.456;7.622;2023-07-08T16:52:33;32.80;1.00
15115;DHT22;7658;51.456;7.622;2023-07-08T16:54:59;32.60;1.00
15115;DHT22;7658;51.456;7.622;2023-07-08T16:57:25;32.40;1.00
15115;DHT22;7658;51.456;7.622;2023-07-08T16:59:52;32.30;99.90
15115;DHT22;7658;51.456;7.622;2023-07-08T17:02:19;32.30;99.90
15115;DHT22;7658;51.456;7.622;2023-07-08T17:04:50;32.30;1.00
15115;DHT22;7658;51.456;7.622;2023-07-08T17:07:16;32.20;99.90
15115;DHT22;7658;51.456;7.622;2023-07-08T17:09:42;32.20;99.90